Time;durP1;ratioP1;P1;durP2;ratioP2;P2;SDS_P1;SDS_P2;PMS_P1;PMS_P2;Temp;Humidity;BMP_temperature;BMP_pressure;BME280_temperature;BME280_humidity;BME280_pressure;Samples;Min_cycle;Max_cycle;Signal;HPM_P1;HPM_P2
2024/03/20 00:01:04;;;;;;;8.63;4.70;;;;;;;8.16;100.00;69299.34;5090493;28;20044;-49
2024/03/20 00:03:31;;;;;;;8.90;4.45;;;;;;;8.13;100.00;69294.41;5107496;28;20086;-49
2024/03/20 00:05:58;;;;;;;13.68;4.30;;;;;;;8.12;100.00;69295.84;5090561;28;20040;-49
2024/03/20 00:08:26;;;;;;;10.35;4.70;;;;;;;8.11;100.00;69296.69;5090124;28;20040;-49
2024/03/20 00:10:54;;;;;;;10.35;4.57;;;;;;;8.07;100.00;69292.63;5087868;28;20657;-49
2024/03/20 00:13:21;;;;;;;11.80;4.53;;;;;;;8.06;100.00;69288.88;5087755;28;20539;-51
2024/03/20 00:15:48;;;;;;;8.73;4.40;;;;;;;8.13;100.00;69296.44;5089418;28;20488;-50
2024/03/20 00:18:15;;;;;;;11.73;4.25;;;;;;;8.14;100.00;69300.22;5087165;28;20503;-51
2024/03/20 00:20:42;;;;;;;11.60;4.30;;;;;;;8.13;100.00;69299.03;5088687;28;20055;-50
2024/03/20 00:23:09;;;;;;;9.10;4.40;;;;;;;8.05;100.00;69284.53;5090272;28;20044;-52
2024/03/20 00:25:38;;;;;;;10.90;4.55;;;;;;;8.03;100.00;69287.97;5087435;28;20044;-50
2024/03/20 00:28:05;;;;;;;7.32;4.13;;;;;;;8.00;100.00;69279.25;5086726;28;20048;-49
2024/03/20 00:30:33;;;;;;;10.48;4.30;;;;;;;7.95;100.00;69283.84;5086959;28;20444;-49
2024/03/20 00:33:00;;;;;;;9.93;4.07;;;;;;;7.95;100.00;69279.22;5088018;28;20055;-51
2024/03/20 00:35:27;;;;;;;9.63;4.20;;;;;;;7.93;100.00;69271.13;5090100;28;20048;-49
2024/03/20 00:37:54;;;;;;;8.32;4.20;;;;;;;7.90;100.00;69270.22;5090197;28;20036;-52
2024/03/20 00:40:23;;;;;;;8.02;4.30;;;;;;;7.91;100.00;69268.81;5089989;28;20070;-49
2024/03/20 00:42:52;;;;;;;9.68;5.20;;;;;;;7.90;100.00;69270.22;5087051;28;20044;-48
2024/03/20 00:45:19;;;;;;;8.43;4.05;;;;;;;7.88;100.00;69265.88;5086539;28;20487;-48
2024/03/20 00:47:46;;;;;;;9.00;4.60;;;;;;;7.89;100.00;69269.63;5088937;28;20063;-49
2024/03/20 00:50:13;;;;;;;12.43;4.90;;;;;;;7.89;100.00;69269.63;5094110;28;20078;-50
2024/03/20 00:52:41;;;;;;;8.90;4.45;;;;;;;7.85;100.00;69267.56;5094201;28;20052;-49
2024/03/20 00:55:09;;;;;;;9.07;4.90;;;;;;;7.86;100.00;69268.16;5093797;28;20067;-51
2024/03/20 00:57:36;;;;;;;9.63;4.57;;;;;;;7.81;100.00;69260.31;5093860;28;20514;-49
2024/03/20 01:00:06;;;;;;;9.68;5.05;;;;;;;7.79;100.00;69258.00;5093749;28;20055;-51
2024/03/20 01:02:33;;;;;;;8.80;4.65;;;;;;;7.81;100.00;69262.34;5093928;28;20036;-52
2024/03/20 01:05:00;;;;;;;8.90;4.63;;;;;;;7.77;100.00;69255.66;5093661;28;20056;-48
2024/03/20 01:07:27;;;;;;;10.95;5.47;;;;;;;7.76;100.00;69257.69;5093611;28;20101;-48
2024/03/20 01:09:54;;;;;;;8.23;4.97;;;;;;;7.73;100.00;69249.00;5093603;28;20048;-53
2024/03/20 01:12:22;;;;;;;9.43;5.05;;;;;;;7.70;100.00;69252.72;5093502;28;20510;-53
2024/03/20 01:14:49;;;;;;;11.73;5.43;;;;;;;7.69;100.00;69249.53;5093556;28;20069;-52
2024/03/20 01:17:17;;;;;;;12.93;5.10;;;;;;;7.65;100.00;69242.28;5093147;28;20040;-49
2024/03/20 01:19:45;;;;;;;10.93;5.40;;;;;;;7.67;100.00;69247.19;5076157;28;20051;-48
2024/03/20 01:22:12;;;;;;;11.65;5.10;;;;;;;7.65;100.00;69244.28;5093466;28;20044;-50
2024/03/20 01:24:40;;;;;;;9.60;4.95;;;;;;;7.63;100.00;69239.38;5093396;28;20479;-52
2024/03/20 01:27:07;;;;;;;9.90;5.53;;;;;;;7.60;100.00;69234.44;5074643;28;20525;-49
2024/03/20 01:29:34;;;;;;;11.45;5.60;;;;;;;7.60;100.00;69236.47;5090581;28;20131;-52
2024/03/20 01:32:01;;;;;;;11.18;5.80;;;;;;;7.59;100.00;69238.47;5091653;28;20040;-49
2024/03/20 01:34:30;;;;;;;14.75;6.20;;;;;;;7.60;100.00;69231.84;5093114;28;20047;-48
2024/03/20 01:36:57;;;;;;;11.05;6.35;;;;;;;7.58;100.00;69234.72;5093268;28;20459;-49
2024/03/20 01:39:24;;;;;;;13.50;6.03;;;;;;;7.56;100.00;69232.38;5092867;28;20056;-49
2024/03/20 01:41:54;;;;;;;10.68;6.20;;;;;;;7.53;100.00;69228.88;5076432;28;20028;-47
2024/03/20 01:44:22;;;;;;;10.00;5.45;;;;;;;7.50;100.00;69224.81;5092693;28;20130;-49
2024/03/20 01:46:49;;;;;;;13.55;6.32;;;;;;;7.47;100.00;69226.50;5092962;28;20059;-49
2024/03/20 01:49:17;;;;;;;10.35;5.68;;;;;;;7.45;100.00;69220.16;5092707;28;20079;-48
2024/03/20 01:51:46;;;;;;;11.73;5.32;;;;;;;7.48;100.00;69225.66;5092817;28;20483;-48
2024/03/20 01:54:14;;;;;;;10.38;5.30;;;;;;;7.45;100.00;69219.56;5074249;28;20058;-49
2024/03/20 01:56:43;;;;;;;10.93;6.03;;;;;;;7.44;100.00;69221.00;5090099;28;20055;-49
2024/03/20 01:59:10;;;;;;;12.07;5.50;;;;;;;7.42;100.00;69216.09;5091044;28;20487;-48
2024/03/20 02:01:37;;;;;;;11.52;5.55;;;;;;;7.39;100.00;69215.16;5092097;28;20441;-50
2024/03/20 02:04:05;;;;;;;10.15;5.50;;;;;;;7.44;100.00;69221.59;5091396;28;20044;-50
2024/03/20 02:06:33;;;;;;;12.35;5.32;;;;;;;7.42;100.00;69218.69;5088175;28;20048;-49
2024/03/20 02:09:03;;;;;;;12.38;5.95;;;;;;;7.40;100.00;69214.34;5090803;28;20043;-51
2024/03/20 02:11:30;;;;;;;12.02;5.88;;;;;;;7.40;100.00;69216.94;5092619;28;20089;-48
2024/03/20 02:13:58;;;;;;;10.00;5.45;;;;;;;7.39;100.00;69215.16;5092532;28;20047;-48
2024/03/20 02:16:27;;;;;;;10.65;5.63;;;;;;;7.36;100.00;69209.69;5092215;28;20499;-51
2024/03/20 02:18:55;;;;;;;9.32;5.45;;;;;;;7.34;100.00;69211.97;5092198;28;20044;-50
2024/03/20 02:21:24;;;;;;;11.20;5.60;;;;;;;7.34;100.00;69209.38;5090392;28;20052;-49
2024/03/20 02:23:52;;;;;;;10.52;5.60;;;;;;;7.33;100.00;69206.19;5089239;28;20388;-49
2024/03/20 02:26:19;;;;;;;10.43;5.68;;;;;;;7.30;100.00;69204.72;5091251;28;20688;-50
2024/03/20 02:28:47;;;;;;;14.82;5.75;;;;;;;7.29;100.00;69204.13;5092217;28;20055;-49
2024/03/20 02:31:15;;;;;;;9.73;5.53;;;;;;;7.27;100.00;69202.38;5091130;28;20990;-51
2024/03/20 02:33:43;;;;;;;10.55;5.18;;;;;;;7.24;100.00;69198.88;5089108;28;20123;-52
2024/03/20 02:36:11;;;;;;;9.73;5.38;;;;;;;7.24;100.00;69196.28;5087883;28;20074;-51
2024/03/20 02:38:41;;;;;;;11.80;4.95;;;;;;;7.24;100.00;69196.28;5088599;28;20043;-49
2024/03/20 02:41:09;;;;;;;10.55;5.07;;;;;;;7.23;100.00;69200.31;5088947;28;20395;-50
2024/03/20 02:43:35;;;;;;;11.05;5.78;;;;;;;7.21;100.00;69195.41;5091608;28;20040;-53
2024/03/20 02:46:03;;;;;;;10.73;5.80;;;;;;;7.20;100.00;69191.03;5091733;28;20044;-51
2024/03/20 02:48:30;;;;;;;10.50;5.75;;;;;;;7.19;100.00;69193.06;5090671;28;20044;-50
2024/03/20 02:50:57;;;;;;;11.18;5.65;;;;;;;7.20;100.00;69196.22;5087002;28;20048;-48
2024/03/20 02:53:24;;;;;;;10.25;5.35;;;;;;;7.18;100.00;69194.50;5073603;28;20066;-52
2024/03/20 02:55:53;;;;;;;11.98;5.35;;;;;;;7.16;100.00;69186.97;5091621;28;20040;-51
2024/03/20 02:58:20;;;;;;;10.82;4.90;;;;;;;7.18;100.00;69191.31;5107437;28;20046;-48
2024/03/20 03:00:47;;;;;;;11.20;4.85;;;;;;;7.16;100.00;69188.97;5087906;28;20595;-49
2024/03/20 03:03:14;;;;;;;10.43;5.32;;;;;;;7.14;100.00;69184.06;5071485;28;20560;-50
2024/03/20 03:05:41;;;;;;;9.52;5.60;;;;;;;7.11;100.00;69181.16;5089734;28;20036;-50
2024/03/20 03:08:08;;;;;;;11.93;5.82;;;;;;;7.14;100.00;69186.66;5091259;28;20040;-50
2024/03/20 03:10:35;;;;;;;11.75;5.68;;;;;;;7.12;100.00;69182.31;5091096;28;20542;-48
2024/03/20 03:13:04;;;;;;;13.90;5.53;;;;;;;7.14;100.00;69186.66;5091127;28;20076;-49
2024/03/20 03:15:33;;;;;;;9.18;5.43;;;;;;;7.14;100.00;69184.66;5091280;28;20044;-50
2024/03/20 03:18:00;;;;;;;11.05;5.47;;;;;;;7.15;100.00;69185.81;5089002;28;20036;-51
2024/03/20 03:20:27;;;;;;;9.75;5.70;;;;;;;7.13;100.00;69188.69;5070652;28;20777;-49
2024/03/20 03:22:54;;;;;;;11.35;5.60;;;;;;;7.13;100.00;69186.09;5087247;28;20404;-50
2024/03/20 03:25:21;;;;;;;12.60;5.60;;;;;;;7.14;100.00;69184.66;5088150;28;20566;-50
2024/03/20 03:27:49;;;;;;;13.15;6.50;;;;;;;7.12;100.00;69182.31;5088084;28;20063;-49
2024/03/20 03:30:17;;;;;;;12.00;5.38;;;;;;;7.13;100.00;69186.09;5089223;28;20054;-49
2024/03/20 03:32:44;;;;;;;10.38;5.65;;;;;;;7.11;100.00;69179.13;5088016;28;20036;-50
2024/03/20 03:35:13;;;;;;;10.27;6.03;;;;;;;7.13;100.00;69180.31;5086294;28;20044;-49
2024/03/20 03:37:40;;;;;;;9.98;5.75;;;;;;;7.15;100.00;69188.41;5087402;28;20043;-48
2024/03/20 03:40:10;;;;;;;8.68;4.97;;;;;;;7.14;100.00;69182.06;5090020;28;20082;-51
2024/03/20 03:42:39;;;;;;;10.82;6.10;;;;;;;7.16;100.00;69186.97;5088219;28;20039;-51
2024/03/20 03:45:07;;;;;;;9.73;5.50;;;;;;;7.16;100.00;69189.56;5087616;28;20430;-49
2024/03/20 03:47:36;;;;;;;9.15;5.65;;;;;;;7.17;100.00;69190.16;5087582;28;20084;-48
2024/03/20 03:50:04;;;;;;;12.65;6.15;;;;;;;7.16;100.00;69186.97;5069489;28;20043;-49
2024/03/20 03:52:32;;;;;;;15.95;6.85;;;;;;;7.17;100.00;69187.56;5073614;28;20081;-48
2024/03/20 03:54:59;;;;;;;11.73;5.90;;;;;;;7.17;100.00;69185.56;5073578;28;20043;-48
2024/03/20 03:57:26;;;;;;;14.68;6.45;;;;;;;7.18;100.00;69186.13;5090524;28;20028;-47
2024/03/20 03:59:54;;;;;;;13.00;6.45;;;;;;;7.15;100.00;69188.41;5090515;28;20140;-49
2024/03/20 04:02:22;;;;;;;11.98;5.90;;;;;;;7.14;100.00;69184.66;5090447;28;20582;-48
2024/03/20 04:04:51;;;;;;;11.68;5.95;;;;;;;7.13;100.00;69188.69;5090372;28;20036;-49
2024/03/20 04:07:18;;;;;;;10.82;5.60;;;;;;;7.13;100.00;69186.09;5090183;28;20062;-49
2024/03/20 04:09:45;;;;;;;11.07;6.10;;;;;;;7.10;100.00;69183.19;5090281;28;20042;-48
2024/03/20 04:12:15;;;;;;;11.20;6.30;;;;;;;7.11;100.00;69183.75;5088779;28;20445;-49
2024/03/20 04:14:43;;;;;;;11.65;5.90;;;;;;;7.08;100.00;69177.66;5070214;28;20040;-48
2024/03/20 04:17:10;;;;;;;12.60;6.18;;;;;;;7.09;100.00;69184.03;5086933;28;20032;-50
2024/03/20 04:19:37;;;;;;;11.13;5.82;;;;;;;7.08;100.00;69175.06;5087270;28;20920;-50
2024/03/20 04:22:06;;;;;;;10.60;5.70;;;;;;;7.06;100.00;69178.53;5085102;28;20406;-49
2024/03/20 04:24:33;;;;;;;12.73;6.70;;;;;;;7.05;100.00;69176.78;5086898;28;20044;-50
2024/03/20 04:27:00;;;;;;;14.25;6.85;;;;;;;7.03;100.00;69175.00;5087393;28;21081;-52
2024/03/20 04:29:27;;;;;;;13.38;5.65;;;;;;;7.01;100.00;69175.28;5087038;28;20494;-50
2024/03/20 04:31:55;;;;;;;10.40;5.82;;;;;;;7.00;100.00;69168.38;5088761;28;20403;-52
2024/03/20 04:34:22;;;;;;;13.68;6.50;;;;;;;6.97;100.00;69164.84;5086243;28;20064;-54
2024/03/20 04:36:49;;;;;;;10.52;5.80;;;;;;;6.94;100.00;69162.53;5087047;28;20166;-48
2024/03/20 04:39:19;;;;;;;11.50;6.03;;;;;;;6.93;100.00;69158.78;5072908;28;20498;-48
2024/03/20 04:41:47;;;;;;;13.07;6.90;;;;;;;6.93;100.00;69161.38;5089951;28;20513;-48
2024/03/20 04:44:15;;;;;;;12.48;5.90;;;;;;;6.90;100.00;69157.88;5087313;28;20052;-47
2024/03/20 04:46:42;;;;;;;11.18;6.45;;;;;;;6.89;100.00;69161.91;5087202;28;20036;-49
2024/03/20 04:49:09;;;;;;;13.13;6.63;;;;;;;6.89;100.00;69156.13;5089767;28;20052;-49
2024/03/20 04:51:36;;;;;;;12.70;7.20;;;;;;;6.87;100.00;69151.22;5090035;28;20402;-47
2024/03/20 04:54:03;;;;;;;14.48;6.65;;;;;;;6.88;100.00;69154.97;5090040;28;20062;-47
2024/03/20 04:56:32;;;;;;;11.93;6.18;;;;;;;6.85;100.00;69154.66;5090006;28;20079;-47
2024/03/20 04:58:59;;;;;;;11.70;6.60;;;;;;;6.86;100.00;69155.25;5089042;28;20036;-48
2024/03/20 05:01:26;;;;;;;14.30;6.63;;;;;;;6.82;100.00;69150.59;5087046;28;20044;-49
2024/03/20 05:03:53;;;;;;;12.68;6.88;;;;;;;6.79;100.00;69152.88;5087903;28;20048;-48
2024/03/20 05:06:21;;;;;;;15.70;6.88;;;;;;;6.78;100.00;69141.31;5086370;28;20572;-49
2024/03/20 05:08:48;;;;;;;10.93;6.50;;;;;;;6.75;100.00;69143.03;5086440;28;20040;-48
2024/03/20 05:11:15;;;;;;;11.98;6.60;;;;;;;6.73;100.00;69141.25;5089022;28;20044;-48
2024/03/20 05:13:43;;;;;;;14.80;6.82;;;;;;;6.73;100.00;69138.09;5089786;28;20036;-49
2024/03/20 05:16:10;;;;;;;12.32;6.68;;;;;;;6.72;100.00;69139.53;5089549;28;20487;-49
2024/03/20 05:18:37;;;;;;;11.82;5.95;;;;;;;6.71;100.00;69135.78;5089563;28;20051;-47
2024/03/20 05:21:04;;;;;;;12.00;6.70;;;;;;;6.69;100.00;69136.63;5089904;28;20074;-51
2024/03/20 05:23:31;;;;;;;13.90;6.78;;;;;;;6.67;100.00;69133.72;5089800;28;20430;-48
2024/03/20 05:25:58;;;;;;;11.73;6.78;;;;;;;6.62;100.00;69131.06;5089683;28;20036;-50
2024/03/20 05:28:25;;;;;;;11.68;6.80;;;;;;;6.59;100.00;69125.56;5089454;28;20076;-46
2024/03/20 05:30:53;;;;;;;14.10;7.35;;;;;;;6.58;100.00;69123.81;5089825;28;20476;-49
2024/03/20 05:33:20;;;;;;;14.60;7.25;;;;;;;6.58;100.00;69121.22;5089297;28;20044;-49
2024/03/20 05:35:46;;;;;;;13.02;6.13;;;;;;;6.55;100.00;69122.94;5089479;28;20053;-49
2024/03/20 05:38:15;;;;;;;9.70;6.35;;;;;;;6.54;100.00;69116.56;5089588;28;20039;-49
2024/03/20 05:40:41;;;;;;;12.65;6.35;;;;;;;6.53;100.00;69112.81;5090139;28;20531;-48
2024/03/20 05:43:09;;;;;;;14.38;6.38;;;;;;;6.50;100.00;69115.09;5090627;28;20052;-48
2024/03/20 05:45:35;;;;;;;11.25;6.60;;;;;;;6.48;100.00;69109.59;5076051;28;20101;-49
2024/03/20 05:48:04;;;;;;;11.18;5.78;;;;;;;6.45;100.00;69106.09;5092650;28;20415;-47
2024/03/20 05:50:31;;;;;;;12.02;6.63;;;;;;;6.42;100.00;69106.38;5092989;28;20483;-47
2024/03/20 05:52:58;;;;;;;11.63;6.70;;;;;;;6.43;100.00;69104.34;5092857;28;20084;-45
2024/03/20 05:55:24;;;;;;;12.77;7.05;;;;;;;6.44;100.00;69108.13;5092884;28;20142;-46
2024/03/20 05:57:51;;;;;;;13.00;7.38;;;;;;;6.44;100.00;69108.13;5109757;28;20044;-46
2024/03/20 06:00:19;;;;;;;12.32;6.82;;;;;;;6.46;100.00;69112.44;5092539;28;20044;-46
2024/03/20 06:02:47;;;;;;;11.57;6.60;;;;;;;6.45;100.00;69108.69;5092310;28;20105;-47
2024/03/20 06:05:16;;;;;;;10.95;6.30;;;;;;;6.44;100.00;69105.53;5092209;28;20048;-49
2024/03/20 06:07:44;;;;;;;14.13;6.72;;;;;;;6.46;100.00;69104.69;5092332;28;20047;-50
2024/03/20 06:10:10;;;;;;;12.30;6.30;;;;;;;6.48;100.00;69109.59;5092317;28;20051;-50
2024/03/20 06:12:38;;;;;;;11.30;6.70;;;;;;;6.51;100.00;69113.66;5092334;28;20547;-52
2024/03/20 06:15:05;;;;;;;14.07;6.75;;;;;;;6.53;100.00;69113.41;5092227;28;20048;-50
2024/03/20 06:17:33;;;;;;;14.88;6.78;;;;;;;6.55;100.00;69120.34;5091997;28;20093;-46
2024/03/20 06:19:59;;;;;;;10.88;6.55;;;;;;;6.57;100.00;69115.47;5092033;28;20044;-45
2024/03/20 06:22:28;;;;;;;13.32;7.15;;;;;;;6.60;100.00;69124.13;5109290;28;20544;-47
2024/03/20 06:24:54;;;;;;;11.25;6.85;;;;;;;6.63;100.00;69131.66;5092070;28;20056;-47
2024/03/20 06:27:22;;;;;;;12.95;6.40;;;;;;;6.66;100.00;69132.56;5091934;28;20403;-50
2024/03/20 06:29:51;;;;;;;13.48;6.75;;;;;;;6.70;100.00;69137.22;5075295;28;20078;-47
2024/03/20 06:32:19;;;;;;;13.02;7.28;;;;;;;6.73;100.00;69140.69;5091896;28;20048;-48
2024/03/20 06:34:45;;;;;;;12.15;6.95;;;;;;;6.77;100.00;69145.34;5075029;28;20076;-48
2024/03/20 06:37:14;;;;;;;12.18;7.43;;;;;;;6.83;100.00;69152.34;5091929;28;20438;-46
2024/03/20 06:39:42;;;;;;;10.70;7.10;;;;;;;6.88;100.00;69155.53;5090438;28;20495;-48
2024/03/20 06:42:16;;;;;;;13.85;7.35;;;;;;;6.91;100.00;69161.66;5088980;28;20092;-49
2024/03/20 06:44:43;;;;;;;12.38;6.82;;;;;;;6.96;100.00;69166.31;5090751;28;20079;-46
2024/03/20 06:47:10;;;;;;;11.98;6.50;;;;;;;7.02;100.00;69170.69;5091017;28;20115;-46
2024/03/20 06:49:37;;;;;;;11.70;7.05;;;;;;;7.05;100.00;69174.19;5090573;28;20040;-49
2024/03/20 06:52:04;;;;;;;15.27;7.88;;;;;;;7.11;100.00;69183.75;5089269;28;20043;-50
2024/03/20 06:54:31;;;;;;;14.13;7.93;;;;;;;7.17;100.00;69188.16;5087643;28;20108;-48
2024/03/20 06:57:02;;;;;;;13.07;8.18;;;;;;;7.24;100.00;69198.88;5086483;28;20821;-48
2024/03/20 06:59:29;;;;;;;13.48;7.38;;;;;;;7.28;100.00;69200.94;5088933;28;20035;-49
2024/03/20 07:01:57;;;;;;;18.35;8.32;;;;;;;7.33;100.00;69208.19;5090331;28;20039;-50
2024/03/20 07:04:24;;;;;;;15.25;8.40;;;;;;;7.38;100.00;69217.19;5090109;28;20040;-50
2024/03/20 07:06:53;;;;;;;14.75;8.38;;;;;;;7.45;100.00;69217.56;5079612;28;20036;-50
2024/03/20 07:09:20;;;;;;;16.08;8.02;;;;;;;7.54;100.00;69227.47;5088313;28;20127;-50
2024/03/20 07:11:48;;;;;;;16.65;7.43;;;;;;;7.60;100.00;69236.47;5070137;28;20043;-49
2024/03/20 07:14:16;;;;;;;14.23;7.32;;;;;;;7.66;100.00;69246.03;5088792;28;20040;-48
2024/03/20 07:16:44;;;;;;;16.55;7.85;;;;;;;7.72;100.00;69249.84;5073335;28;20089;-50
2024/03/20 07:19:10;;;;;;;16.17;7.30;;;;;;;7.79;100.00;69261.16;5089539;28;20032;-50
2024/03/20 07:21:39;;;;;;;16.58;7.45;;;;;;;7.86;100.00;69263.53;5090655;28;20093;-49
2024/03/20 07:24:05;;;;;;;13.65;7.03;;;;;;;7.96;100.00;69274.59;5073075;28;20446;-50
2024/03/20 07:26:37;;;;;;;16.98;7.30;;;;;;;8.05;100.00;69287.13;5089855;28;20032;-47
2024/03/20 07:29:05;;;;;;;15.45;7.13;;;;;;;8.14;100.00;69300.22;5072918;28;20044;-49
2024/03/20 07:31:35;;;;;;;16.35;7.20;;;;;;;8.25;100.00;69309.84;5087032;28;20364;-51
2024/03/20 07:34:01;;;;;;;14.45;7.40;;;;;;;8.39;100.00;69328.75;5087486;28;20044;-50
2024/03/20 07:36:28;;;;;;;14.43;6.82;;;;;;;8.54;100.00;69340.47;5089747;28;20040;-49
2024/03/20 07:38:55;;;;;;;14.40;7.65;;;;;;;8.72;100.00;69365.47;5087373;28;20043;-50
2024/03/20 07:41:22;;;;;;;18.83;7.93;;;;;;;8.86;100.00;69381.81;5086486;28;20402;-49
2024/03/20 07:43:49;;;;;;;18.10;8.38;;;;;;;9.04;100.00;69399.00;5089618;28;20055;-50
2024/03/20 07:46:16;;;;;;;16.77;9.07;;;;;;;9.21;100.00;69421.41;5081015;28;20396;-52
2024/03/20 07:48:45;;;;;;;16.10;8.90;;;;;;;9.39;100.00;69441.25;5089055;28;20067;-51
2024/03/20 07:51:12;;;;;;;16.27;9.63;;;;;;;9.55;100.00;69454.13;5072147;28;20036;-50
2024/03/20 07:53:38;;;;;;;20.17;9.38;;;;;;;9.72;100.00;69479.16;5087606;28;20538;-50
2024/03/20 07:56:06;;;;;;;17.63;9.57;;;;;;;9.90;100.00;69496.97;5086435;28;20196;-51
2024/03/20 07:58:32;;;;;;;14.93;9.18;;;;;;;10.07;100.00;69518.22;5085962;28;20028;-52
2024/03/20 08:01:00;;;;;;;16.48;9.35;;;;;;;10.21;100.00;69531.97;5086936;28;20043;-49
2024/03/20 08:03:27;;;;;;;15.82;9.75;;;;;;;10.34;100.00;69551.75;5088624;28;20040;-49
2024/03/20 08:05:55;;;;;;;17.70;9.27;;;;;;;10.42;100.00;69555.31;5089238;28;20032;-51
2024/03/20 08:08:21;;;;;;;18.60;9.77;;;;;;;10.48;100.00;69555.09;5088745;28;20040;-51
2024/03/20 08:10:49;;;;;;;17.25;8.68;;;;;;;10.59;100.00;69574.56;5089126;28;20062;-50
2024/03/20 08:13:15;;;;;;;15.73;9.00;;;;;;;10.65;100.00;69584.19;5088497;28;20039;-50
2024/03/20 08:15:42;;;;;;;16.92;9.65;;;;;;;10.75;100.00;69593.25;5085849;28;20073;-50
2024/03/20 08:18:08;;;;;;;20.20;9.68;;;;;;;10.84;100.00;69603.19;5087313;28;20032;-52
2024/03/20 08:20:35;;;;;;;17.92;9.70;;;;;;;10.94;100.00;69617.44;5088584;28;20040;-50
2024/03/20 08:23:03;;;;;;;16.55;9.40;;;;;;;11.06;100.00;69625.66;5068647;28;20046;-51
2024/03/20 08:25:31;;;;;;;16.05;9.38;;;;;;;11.14;100.00;69632.41;5086549;28;20448;-50
2024/03/20 08:27:57;;;;;;;13.75;9.02;;;;;;;11.23;100.00;69650.16;5088962;28;20068;-49
2024/03/20 08:30:24;;;;;;;15.57;9.65;;;;;;;11.37;100.00;69660.09;5088201;28;20032;-50
2024/03/20 08:32:50;;;;;;;16.88;10.02;;;;;;;11.48;100.00;69670.94;5086969;28;20048;-49
2024/03/20 08:35:18;;;;;;;18.15;10.88;;;;;;;11.58;100.00;69686.69;5084492;28;20036;-52
2024/03/20 08:37:44;;;;;;;14.68;10.35;;;;;;;11.70;100.00;69698.06;5089223;28;20048;-50
2024/03/20 08:40:14;;;;;;;19.60;11.80;;;;;;;11.82;100.00;69712.09;5089158;28;20085;-51
2024/03/20 08:42:41;;;;;;;17.40;10.65;;;;;;;11.95;100.00;69726.72;5089320;28;20077;-50
2024/03/20 08:45:09;;;;;;;19.05;11.90;;;;;;;12.07;100.00;69744.81;5087861;28;20044;-51
2024/03/20 08:47:35;;;;;;;19.73;11.63;;;;;;;12.23;100.00;69762.91;5085994;28;20044;-49
2024/03/20 08:50:03;;;;;;;19.27;11.65;;;;;;;12.38;100.00;69772.00;5088078;28;20048;-53
2024/03/20 08:52:30;;;;;;;20.77;12.60;;;;;;;12.51;100.00;69795.06;5085297;28;20040;-52
2024/03/20 08:54:57;;;;;;;15.80;11.18;;;;;;;12.66;100.00;69807.34;5085830;28;20047;-53
2024/03/20 08:57:25;;;;;;;19.45;12.45;;;;;;;12.73;100.00;69814.38;5086494;28;20556;-54
2024/03/20 08:59:52;;;;;;;19.58;13.50;;;;;;;12.88;100.00;69836.56;5085223;28;20043;-51
2024/03/20 09:02:18;;;;;;;21.42;13.05;;;;;;;13.06;100.00;69849.75;5087680;28;20498;-50
2024/03/20 09:04:45;;;;;;;20.33;13.20;;;;;;;13.30;100.00;69881.88;5089848;28;20471;-49
2024/03/20 09:07:11;;;;;;;17.67;12.07;;;;;;;13.46;100.00;69897.44;5089722;28;20376;-50
2024/03/20 09:09:38;;;;;;;20.45;13.35;;;;;;;13.71;100.00;69925.50;5090649;28;20044;-49
2024/03/20 09:12:06;;;;;;;17.50;13.00;;;;;;;13.91;100.00;69948.31;5090899;28;20097;-52
2024/03/20 09:14:35;;;;;;;21.42;13.70;;;;;;;14.09;100.00;69968.78;5091103;28;20051;-53
2024/03/20 09:17:01;;;;;;;16.88;13.65;;;;;;;14.23;100.00;69985.16;5090519;28;20384;-51
2024/03/20 09:19:28;;;;;;;19.05;13.80;;;;;;;14.42;100.00;70008.88;5075664;28;20036;-51
2024/03/20 09:21:55;;;;;;;19.90;13.25;;;;;;;14.54;100.00;70020.28;5090447;28;20375;-53
2024/03/20 09:24:25;;;;;;;20.58;12.98;;;;;;;14.75;100.00;70043.72;5088668;28;20119;-51
2024/03/20 09:26:51;;;;;;;20.85;14.10;;;;;;;14.94;100.00;70065.97;5089437;28;20040;-50
2024/03/20 09:29:19;;;;;;;25.25;13.95;;;;;;;15.08;100.00;70079.16;5098901;28;20048;-54
2024/03/20 09:31:49;;;;;;;19.60;13.93;;;;;;;15.12;100.00;70086.47;5088950;28;20097;-52
2024/03/20 09:34:17;;;;;;;21.67;14.30;;;;;;;15.30;100.00;70106.38;5091914;28;20360;-51
2024/03/20 09:36:43;;;;;;;23.17;14.60;;;;;;;15.50;100.00;70129.81;5092121;28;20036;-52
2024/03/20 09:39:10;;;;;;;21.00;14.65;;;;;;;15.64;100.00;70143.00;5090309;28;20436;-52
2024/03/20 09:41:37;;;;;;;22.23;15.20;;;;;;;15.54;100.00;70131.28;5088329;28;20051;-52
2024/03/20 09:44:06;;;;;;;21.10;14.95;;;;;;;15.71;100.00;70153.81;5091034;28;20036;-52
2024/03/20 09:46:33;;;;;;;19.88;14.75;;;;;;;15.83;100.00;70167.31;5091629;28;20043;-54
2024/03/20 09:49:01;;;;;;;20.63;15.05;;;;;;;15.92;100.00;70176.69;5091734;28;20124;-53
2024/03/20 09:51:28;;;;;;;21.75;14.82;;;;;;;16.14;100.00;70202.50;5091735;28;20375;-54
2024/03/20 09:53:58;;;;;;;20.48;15.35;;;;;;;16.30;100.00;70220.06;5090881;28;20059;-53
2024/03/20 09:56:25;;;;;;;21.60;16.55;;;;;;;16.30;100.00;70225.91;5091657;28;20032;-52
2024/03/20 09:58:54;;;;;;;21.48;16.60;;;;;;;16.41;100.00;70235.00;5092089;28;20044;-53
2024/03/20 10:01:21;;;;;;;24.08;16.95;;;;;;;16.44;100.00;70241.72;5089288;28;20051;-52
2024/03/20 10:03:53;;;;;;;26.92;19.35;;;;;;;16.50;100.00;70242.94;5089040;28;20036;-52
2024/03/20 10:06:21;;;;;;;24.90;19.00;;;;;;;16.54;100.00;70247.63;5088091;28;20043;-52
2024/03/20 10:08:48;;;;;;;27.23;18.92;;;;;;;16.79;100.00;70275.75;5088466;28;20387;-51
2024/03/20 10:11:14;;;;;;;24.67;19.35;;;;;;;16.83;100.00;70283.66;5088304;28;20047;-52
2024/03/20 10:13:42;;;;;;;26.90;19.63;;;;;;;16.92;100.00;70291.03;5078802;28;20044;-53
2024/03/20 10:16:12;;;;;;;25.73;19.02;;;;;;;17.05;100.00;70305.69;5071158;28;20492;-51
2024/03/20 10:18:40;;;;;;;26.55;18.98;;;;;;;17.01;100.00;70306.84;5069246;28;20040;-53
2024/03/20 10:21:07;;;;;;;23.20;18.13;;;;;;;17.22;100.00;70322.41;5068570;28;20045;-52
2024/03/20 10:23:40;;;;;;;25.38;17.23;;;;;;;17.40;100.00;70342.94;5071761;28;20407;-53
2024/03/20 10:26:06;;;;;;;22.50;17.08;;;;;;;17.59;100.00;70369.91;5071776;28;20491;-55
2024/03/20 10:28:35;;;;;;;22.60;16.90;;;;;;;17.58;100.00;70363.44;5071670;28;20044;-53
2024/03/20 10:31:03;;;;;;;22.42;17.58;;;;;;;17.70;100.00;70382.81;5071635;28;20049;-54
2024/03/20 10:33:31;;;;;;;24.30;17.92;;;;;;;17.71;100.00;70383.38;5071613;28;20044;-53
2024/03/20 10:35:59;;;;;;;20.95;16.45;;;;;;;17.74;100.00;70384.28;5071740;28;20036;-55
2024/03/20 10:38:28;;;;;;;21.08;15.98;;;;;;;17.77;100.00;70389.88;5071529;28;20094;-53
2024/03/20 10:40:56;;;;;;;23.15;15.93;;;;;;;18.06;100.00;70423.91;5068353;28;20041;-47
2024/03/20 10:43:25;;;;;;;23.25;16.90;;;;;;;18.18;100.00;70436.81;5069417;28;20040;-50
2024/03/20 10:45:56;;;;;;;23.48;16.48;;;;;;;18.36;100.00;70457.38;5071657;28;20160;-50
2024/03/20 10:48:25;;;;;;;21.90;15.05;;;;;;;18.50;100.00;70470.56;5071119;28;20109;-50
2024/03/20 10:50:53;;;;;;;23.90;16.75;;;;;;;18.65;100.00;70490.84;5071473;28;20045;-51
2024/03/20 10:53:22;;;;;;;20.50;16.40;;;;;;;18.84;100.00;70509.91;5071289;28;20045;-48
2024/03/20 10:55:51;;;;;;;21.27;17.73;;;;;;;18.92;100.00;70521.97;5054718;28;20094;-49
2024/03/20 10:58:21;;;;;;;19.35;15.90;;;;;;;19.12;100.00;70541.66;5071328;28;20507;-49
2024/03/20 11:00:53;;;;;;;21.42;16.15;;;;;;;19.24;100.00;70552.50;5071530;28;20040;-48
2024/03/20 11:03:39;;;;;;;20.65;14.10;;;;;;;19.53;100.00;70588.03;5068886;28;20098;-49
2024/03/20 11:06:40;;;;;;;19.20;15.52;;;;;;;19.24;100.00;70558.38;5067400;28;20093;-49
2024/03/20 11:09:20;;;;;;;19.85;13.38;;;;;;;19.57;100.00;70593.31;5011860;28;20060;-47
2024/03/20 11:11:48;;;;;;;17.50;12.77;;;;;;;19.82;100.00;70623.63;5010523;28;20081;-49
2024/03/20 11:14:24;;;;;;;18.65;14.82;;;;;;;19.83;100.00;70622.16;5042779;28;20048;-49
2024/03/20 11:16:54;;;;;;;18.05;13.25;;;;;;;19.99;100.00;70643.00;5067837;28;20135;-51
2024/03/20 11:19:20;;;;;;;20.67;13.45;;;;;;;20.20;100.00;70667.69;5069336;28;20369;-48
2024/03/20 11:21:49;;;;;;;20.25;15.10;;;;;;;20.47;100.00;70697.69;5070736;28;20058;-48
2024/03/20 11:24:18;;;;;;;20.75;14.77;;;;;;;20.63;100.00;70713.22;5070759;28;20048;-48